Time;durP1;ratioP1;P1;durP2;ratioP2;P2;SDS_P1;SDS_P2;PMS_P1;PMS_P2;Temp;Humidity;BMP_temperature;BMP_pressure;BME280_temperature;BME280_humidity;BME280_pressure;Samples;Min_cycle;Max_cycle;Signal;HPM_P1;HPM_P2
2023/08/21 00:01:29;;;;;;;15.57;12.48;;;;;;;-146.82;100.00;71671.09;5077377;28;20032;-80
2023/08/21 00:03:55;;;;;;;21.75;13.88;;;;;;;-146.82;100.00;71671.09;5076043;28;20051;-77
2023/08/21 00:06:20;;;;;;;17.20;12.98;;;;;;;-146.82;100.00;71671.09;5077604;28;20028;-77
2023/08/21 00:08:46;;;;;;;19.85;13.77;;;;;;;-146.82;100.00;71671.09;5077329;28;20036;-77
2023/08/21 00:11:11;;;;;;;16.48;12.93;;;;;;;-146.82;100.00;71671.09;5077453;28;20029;-78
2023/08/21 00:13:37;;;;;;;18.52;12.07;;;;;;;-146.82;100.00;71671.09;5077364;28;20118;-78
2023/08/21 00:16:03;;;;;;;20.05;13.50;;;;;;;-146.82;100.00;71671.09;5077137;28;20032;-78
2023/08/21 00:18:29;;;;;;;16.35;11.88;;;;;;;-146.82;100.00;71671.09;5077516;28;20483;-78
2023/08/21 00:20:55;;;;;;;17.60;12.80;;;;;;;-146.82;100.00;71671.09;5077192;28;20111;-77
2023/08/21 00:23:20;;;;;;;15.15;12.48;;;;;;;-146.82;100.00;71671.09;5077200;28;20523;-79
2023/08/21 00:25:47;;;;;;;21.85;13.00;;;;;;;-146.82;100.00;71671.09;5077145;28;20028;-78
2023/08/21 00:28:13;;;;;;;19.73;13.13;;;;;;;-146.82;100.00;71671.09;5076959;28;20039;-78
2023/08/21 00:30:40;;;;;;;17.73;13.20;;;;;;;-146.82;100.00;71671.09;5092778;28;20032;-78
2023/08/21 00:33:05;;;;;;;20.10;13.38;;;;;;;-146.82;100.00;71671.09;5076831;28;20029;-77
2023/08/21 00:35:32;;;;;;;20.48;12.55;;;;;;;-146.82;100.00;71671.09;5076837;28;20086;-78
2023/08/21 00:37:57;;;;;;;17.58;13.90;;;;;;;-146.82;100.00;71671.09;5076631;28;20028;-76
2023/08/21 00:40:22;;;;;;;17.42;13.55;;;;;;;-146.82;100.00;71671.09;5076649;28;20034;-77
2023/08/21 00:42:48;;;;;;;18.15;13.38;;;;;;;-146.82;100.00;71671.09;5076760;28;20028;-78
2023/08/21 00:45:14;;;;;;;19.70;13.00;;;;;;;-146.82;100.00;71671.09;5076786;28;20458;-79
2023/08/21 00:47:41;;;;;;;15.70;13.27;;;;;;;-146.82;100.00;71671.09;5076980;28;20039;-78
2023/08/21 00:50:08;;;;;;;18.95;14.02;;;;;;;-146.82;100.00;71671.09;5075242;28;20028;-78
2023/08/21 00:52:35;;;;;;;17.00;14.07;;;;;;;-146.82;100.00;71671.09;5076471;28;20028;-78
2023/08/21 00:55:10;;;;;;;19.88;13.68;;;;;;;-146.82;100.00;71671.09;5075331;28;20040;-77
2023/08/21 00:57:37;;;;;;;21.25;15.18;;;;;;;-146.82;100.00;71671.09;5076345;28;20465;-78
2023/08/21 01:00:12;;;;;;;20.13;15.40;;;;;;;-146.82;100.00;71671.09;5092295;28;20024;-78
2023/08/21 01:02:38;;;;;;;16.85;14.68;;;;;;;-146.82;100.00;71671.09;5075154;28;20032;-78
2023/08/21 01:05:04;;;;;;;17.13;13.40;;;;;;;-146.82;100.00;71671.09;5075824;28;20075;-78
2023/08/21 01:07:36;;;;;;;22.13;15.40;;;;;;;-146.82;100.00;71671.09;5075730;28;20048;-78
2023/08/21 01:10:13;;;;;;;20.42;14.68;;;;;;;-146.82;100.00;71671.09;5075804;28;20067;-77
2023/08/21 01:12:50;;;;;;;18.02;14.48;;;;;;;-146.82;100.00;71671.09;5075368;28;20025;-77
2023/08/21 01:15:25;;;;;;;20.23;14.18;;;;;;;-146.82;100.00;71671.09;5073922;28;20036;-76
2023/08/21 01:17:51;;;;;;;20.33;14.65;;;;;;;-146.82;100.00;71671.09;5075742;28;20038;-76
2023/08/21 01:20:17;;;;;;;19.55;14.57;;;;;;;-146.82;100.00;71671.09;5057125;28;20393;-77
2023/08/21 01:22:46;;;;;;;18.02;13.77;;;;;;;-146.82;100.00;71671.09;5074145;28;20036;-78
2023/08/21 01:25:12;;;;;;;16.83;13.98;;;;;;;-146.82;100.00;71671.09;5075846;28;20029;-77
2023/08/21 01:27:50;;;;;;;15.75;14.13;;;;;;;-146.82;100.00;71671.09;5075790;28;20381;-76
2023/08/21 01:30:24;;;;;;;16.02;13.77;;;;;;;-146.82;100.00;71671.09;5076000;28;20024;-78
2023/08/21 01:33:10;;;;;;;20.05;13.70;;;;;;;-146.82;100.00;71671.09;5074587;28;20023;-78
2023/08/21 01:35:37;;;;;;;16.40;12.65;;;;;;;-146.82;100.00;71671.09;5074552;28;20081;-76
2023/08/21 01:38:04;;;;;;;15.75;13.60;;;;;;;-146.82;100.00;71671.09;5073174;28;20044;-78
2023/08/21 01:40:30;;;;;;;18.70;14.30;;;;;;;-146.82;100.00;71671.09;5073238;28;20119;-76
2023/08/21 01:43:02;;;;;;;17.60;14.50;;;;;;;-146.82;100.00;71671.09;5074191;28;20389;-77
2023/08/21 01:45:28;;;;;;;20.38;14.13;;;;;;;-146.82;100.00;71671.09;5089952;28;20028;-77
2023/08/21 01:47:53;;;;;;;20.65;14.70;;;;;;;-146.82;100.00;71671.09;5090208;28;20414;-77
2023/08/21 01:50:19;;;;;;;17.58;14.45;;;;;;;-146.82;100.00;71671.09;5075404;28;20566;-77
2023/08/21 01:52:44;;;;;;;20.67;14.60;;;;;;;-146.82;100.00;71671.09;5074246;28;20078;-78
2023/08/21 01:55:11;;;;;;;16.67;14.20;;;;;;;-146.82;100.00;71671.09;5075493;28;20451;-77
2023/08/21 01:57:36;;;;;;;16.40;13.80;;;;;;;-146.82;100.00;71671.09;5090789;28;20033;-78
2023/08/21 02:00:04;;;;;;;17.23;13.57;;;;;;;-146.82;100.00;71671.09;5074728;28;20101;-77
2023/08/21 02:02:31;;;;;;;16.02;13.63;;;;;;;-146.82;100.00;71671.09;5090532;28;20107;-77
2023/08/21 02:04:57;;;;;;;24.27;13.90;;;;;;;-146.82;100.00;71671.09;5075015;28;20096;-77
2023/08/21 02:07:24;;;;;;;17.05;14.10;;;;;;;-146.82;100.00;71671.09;5075339;28;20093;-77
2023/08/21 02:09:50;;;;;;;17.85;13.70;;;;;;;-146.82;100.00;71671.09;5074994;28;20518;-77
2023/08/21 02:12:15;;;;;;;18.95;14.27;;;;;;;-146.82;100.00;71671.09;5074923;28;20028;-77
2023/08/21 02:14:41;;;;;;;17.77;14.63;;;;;;;-146.82;100.00;71671.09;5090488;28;20174;-77
2023/08/21 02:17:08;;;;;;;20.05;15.30;;;;;;;-146.82;100.00;71671.09;5075229;28;20056;-78
2023/08/21 02:19:34;;;;;;;18.77;15.73;;;;;;;-146.82;100.00;71671.09;5073847;28;20101;-78
2023/08/21 02:22:01;;;;;;;20.80;16.83;;;;;;;-146.82;100.00;71671.09;5073830;28;20408;-77
2023/08/21 02:24:28;;;;;;;22.70;17.08;;;;;;;-146.82;100.00;71671.09;5074889;28;20466;-77
2023/08/21 02:26:54;;;;;;;24.52;17.65;;;;;;;-146.82;100.00;71671.09;5074557;28;20094;-78
2023/08/21 02:29:20;;;;;;;20.98;17.63;;;;;;;-146.82;100.00;71671.09;5074436;28;20373;-77
2023/08/21 02:31:46;;;;;;;21.20;18.23;;;;;;;-146.82;100.00;71671.09;5074518;28;20024;-76
2023/08/21 02:34:12;;;;;;;23.20;17.85;;;;;;;-146.82;100.00;71671.09;5074708;28;20036;-78
2023/08/21 02:36:38;;;;;;;26.52;19.08;;;;;;;-146.82;100.00;71671.09;5074565;28;20028;-77
2023/08/21 02:39:05;;;;;;;24.05;19.25;;;;;;;-146.82;100.00;71671.09;5090112;28;20081;-76
2023/08/21 02:41:32;;;;;;;23.88;20.00;;;;;;;-146.82;100.00;71671.09;5074413;28;20382;-77
2023/08/21 02:44:00;;;;;;;31.85;22.23;;;;;;;-146.82;100.00;71671.09;5074378;28;20083;-77
2023/08/21 02:46:26;;;;;;;29.10;23.15;;;;;;;-146.82;100.00;71671.09;5074370;28;20094;-78
2023/08/21 02:48:52;;;;;;;28.13;20.77;;;;;;;-146.82;100.00;71671.09;5073729;28;20036;-78
2023/08/21 02:51:18;;;;;;;27.70;23.08;;;;;;;-146.82;100.00;71671.09;5074296;28;20458;-77
2023/08/21 02:53:44;;;;;;;27.17;22.90;;;;;;;-146.82;100.00;71671.09;5089762;28;20039;-77
2023/08/21 02:56:11;;;;;;;29.45;23.42;;;;;;;-146.82;100.00;71671.09;5073238;28;20107;-78
2023/08/21 02:58:38;;;;;;;23.35;19.42;;;;;;;-146.82;100.00;71671.09;5090226;28;20571;-77
2023/08/21 03:01:04;;;;;;;23.13;16.08;;;;;;;-146.82;100.00;71671.09;5073399;28;20028;-78
2023/08/21 03:03:30;;;;;;;21.15;15.48;;;;;;;-146.82;100.00;71671.09;5074145;28;20032;-77
2023/08/21 03:05:58;;;;;;;18.92;13.55;;;;;;;-146.82;100.00;71671.09;5074160;28;20048;-78
2023/08/21 03:08:23;;;;;;;14.05;12.50;;;;;;;-146.82;100.00;71671.09;5073923;28;20068;-77
2023/08/21 03:10:49;;;;;;;11.05;9.60;;;;;;;-146.82;100.00;71671.09;5073907;28;20063;-77
2023/08/21 03:13:14;;;;;;;9.18;8.20;;;;;;;-146.82;100.00;71671.09;5073751;28;20427;-78
2023/08/21 03:15:40;;;;;;;10.85;7.70;;;;;;;-146.82;100.00;71671.09;5074034;28;20086;-77
2023/08/21 03:18:06;;;;;;;8.10;7.10;;;;;;;-146.82;100.00;71671.09;5089650;28;20082;-77
2023/08/21 03:20:31;;;;;;;8.27;6.68;;;;;;;-146.82;100.00;71671.09;5073997;28;20012;-76
2023/08/21 03:22:57;;;;;;;9.75;5.70;;;;;;;-146.82;100.00;71671.09;5073532;28;20518;-75
2023/08/21 03:25:23;;;;;;;8.93;6.20;;;;;;;-146.82;100.00;71671.09;5073990;28;20023;-78
2023/08/21 03:27:49;;;;;;;8.73;5.88;;;;;;;-146.82;100.00;71671.09;5090083;28;20036;-78
2023/08/21 03:30:16;;;;;;;8.70;5.15;;;;;;;-146.82;100.00;71671.09;5089820;28;20020;-78
2023/08/21 03:32:42;;;;;;;9.63;6.30;;;;;;;-146.82;100.00;71671.09;5074033;28;20023;-77
2023/08/21 03:35:07;;;;;;;8.85;6.43;;;;;;;-146.82;100.00;71671.09;5073202;28;20032;-78
2023/08/21 03:37:33;;;;;;;10.13;6.43;;;;;;;-146.82;100.00;71671.09;5073944;28;20369;-77
2023/08/21 03:39:59;;;;;;;7.43;5.93;;;;;;;-146.82;100.00;71671.09;5072348;28;20244;-77
2023/08/21 03:42:24;;;;;;;10.02;7.05;;;;;;;-146.82;100.00;71671.09;5073488;28;20030;-76
2023/08/21 03:44:51;;;;;;;10.90;7.25;;;;;;;-146.82;100.00;71671.09;5073481;28;20116;-76
2023/08/21 03:47:16;;;;;;;7.93;6.57;;;;;;;-146.82;100.00;71671.09;5073246;28;20473;-76
2023/08/21 03:49:42;;;;;;;14.85;9.32;;;;;;;-146.82;100.00;71671.09;5072280;28;20024;-77
2023/08/21 03:52:08;;;;;;;14.02;9.00;;;;;;;-146.82;100.00;71671.09;5091090;28;20377;-77
2023/08/21 03:54:35;;;;;;;16.50;10.00;;;;;;;-146.82;100.00;71671.09;5080238;28;20020;-77
2023/08/21 03:57:01;;;;;;;14.18;11.23;;;;;;;-146.82;100.00;71671.09;5076317;28;20052;-79
2023/08/21 03:59:27;;;;;;;14.48;12.50;;;;;;;-146.82;100.00;71671.09;5090449;28;20028;-79
2023/08/21 04:01:53;;;;;;;19.70;14.75;;;;;;;-146.82;100.00;71671.09;5072470;28;20036;-77
2023/08/21 04:04:19;;;;;;;25.02;17.15;;;;;;;-146.82;100.00;71671.09;5073609;28;20126;-79
2023/08/21 04:06:44;;;;;;;25.83;18.52;;;;;;;-146.82;100.00;71671.09;5074357;28;20025;-78
2023/08/21 04:09:10;;;;;;;28.25;19.25;;;;;;;-146.82;100.00;71671.09;5072801;28;20127;-78
2023/08/21 04:11:36;;;;;;;28.25;20.15;;;;;;;-146.82;100.00;71671.09;5073981;28;20024;-77
2023/08/21 04:14:02;;;;;;;26.33;21.58;;;;;;;-146.82;100.00;71671.09;5073406;28;20488;-79
2023/08/21 04:16:31;;;;;;;31.30;23.80;;;;;;;-146.82;100.00;71671.09;5073450;28;20110;-77
2023/08/21 04:18:57;;;;;;;31.83;22.65;;;;;;;-146.82;100.00;71671.09;5073382;28;20025;-77
2023/08/21 04:21:23;;;;;;;29.17;20.70;;;;;;;-146.82;100.00;71671.09;5088634;28;20103;-78
2023/08/21 04:23:48;;;;;;;28.98;20.77;;;;;;;-146.82;100.00;71671.09;5073346;28;20453;-77
2023/08/21 04:26:14;;;;;;;27.35;20.20;;;;;;;-146.82;100.00;71671.09;5073002;28;20027;-78
2023/08/21 04:28:40;;;;;;;28.95;19.70;;;;;;;-146.82;100.00;71671.09;5088731;28;20038;-77
2023/08/21 04:31:07;;;;;;;26.70;19.58;;;;;;;-146.82;100.00;71671.09;5072887;28;20012;-78
2023/08/21 04:33:33;;;;;;;28.80;19.98;;;;;;;-146.82;100.00;71671.09;5073231;28;20052;-77
2023/08/21 04:35:59;;;;;;;30.55;21.17;;;;;;;-146.82;100.00;71671.09;5071697;28;20430;-77
2023/08/21 04:38:26;;;;;;;30.52;20.58;;;;;;;-146.82;100.00;71671.09;5073025;28;20377;-77
2023/08/21 04:40:51;;;;;;;26.05;19.52;;;;;;;-146.82;100.00;71671.09;5073007;28;20031;-76
2023/08/21 04:43:17;;;;;;;24.55;18.75;;;;;;;-146.82;100.00;71671.09;5075626;28;20024;-78
2023/08/21 04:45:50;;;;;;;27.63;20.48;;;;;;;-146.82;100.00;71671.09;5076660;28;20078;-78
2023/08/21 04:48:15;;;;;;;26.23;19.23;;;;;;;-146.82;100.00;71671.09;5075557;28;20033;-78
2023/08/21 04:50:42;;;;;;;28.10;19.17;;;;;;;-146.82;100.00;71671.09;5076542;28;20017;-78
2023/08/21 04:53:09;;;;;;;24.30;18.75;;;;;;;-146.82;100.00;71671.09;5075082;28;20032;-77
2023/08/21 04:55:36;;;;;;;25.48;17.77;;;;;;;-146.82;100.00;71671.09;5076654;28;20039;-77
2023/08/21 04:58:03;;;;;;;25.23;18.58;;;;;;;-146.82;100.00;71671.09;5076342;28;20027;-78
2023/08/21 05:00:30;;;;;;;21.20;17.02;;;;;;;-146.82;100.00;71671.09;5091708;28;20025;-78
2023/08/21 05:02:55;;;;;;;25.50;17.17;;;;;;;-146.82;100.00;71671.09;5091081;28;20111;-78
2023/08/21 05:05:22;;;;;;;21.92;16.60;;;;;;;-146.82;100.00;71671.09;5075013;28;20108;-77
2023/08/21 05:07:47;;;;;;;23.42;18.23;;;;;;;-146.82;100.00;71671.09;5076202;28;20078;-76
2023/08/21 05:10:13;;;;;;;22.45;18.02;;;;;;;-146.82;100.00;71671.09;5075548;28;20029;-78
2023/08/21 05:12:39;;;;;;;25.42;18.90;;;;;;;-146.82;100.00;71671.09;5075972;28;20024;-75
2023/08/21 05:15:06;;;;;;;25.38;17.60;;;;;;;-146.82;100.00;71671.09;5091897;28;20028;-78
2023/08/21 05:17:31;;;;;;;22.95;17.75;;;;;;;-146.82;100.00;71671.09;5076001;28;20465;-77
2023/08/21 05:19:58;;;;;;;22.73;17.48;;;;;;;-146.82;100.00;71671.09;5076352;28;20024;-77
2023/08/21 05:22:23;;;;;;;18.95;15.35;;;;;;;-146.82;100.00;71671.09;5075269;28;20051;-75
2023/08/21 05:24:49;;;;;;;19.92;16.40;;;;;;;-146.82;100.00;71671.09;5075488;28;20465;-82
2023/08/21 05:27:16;;;;;;;24.02;17.90;;;;;;;-146.82;100.00;71671.09;5091439;28;20028;-80
2023/08/21 05:29:42;;;;;;;21.35;16.35;;;;;;;-146.82;100.00;71671.09;5093784;28;20070;-85
2023/08/21 05:32:08;;;;;;;21.70;16.15;;;;;;;-146.82;100.00;71671.09;5075799;28;20023;-79
2023/08/21 05:34:34;;;;;;;22.33;16.42;;;;;;;-146.82;100.00;71671.09;5076156;28;20059;-84
2023/08/21 05:37:00;;;;;;;20.70;16.13;;;;;;;-146.82;100.00;71671.09;5075751;28;20244;-82
2023/08/21 05:39:26;;;;;;;21.85;16.48;;;;;;;-146.82;100.00;71671.09;5076095;28;20035;-81
2023/08/21 05:41:53;;;;;;;19.08;16.67;;;;;;;-146.82;100.00;71671.09;5057765;28;20032;-82
2023/08/21 05:44:19;;;;;;;18.67;16.52;;;;;;;-146.82;100.00;71671.09;5075734;28;20016;-79
2023/08/21 05:46:45;;;;;;;21.13;16.63;;;;;;;-146.82;100.00;71671.09;5075903;28;20031;-83
2023/08/21 05:49:10;;;;;;;22.80;17.50;;;;;;;-146.82;100.00;71671.09;5075743;28;20032;-80
2023/08/21 05:51:37;;;;;;;20.70;15.30;;;;;;;-146.82;100.00;71671.09;5075426;28;20100;-81
2023/08/21 05:54:03;;;;;;;18.15;14.82;;;;;;;-146.82;100.00;71671.09;5075340;28;20047;-80
2023/08/21 05:56:29;;;;;;;16.80;13.75;;;;;;;-146.82;100.00;71671.09;5075805;28;20075;-80
2023/08/21 05:58:56;;;;;;;15.07;12.38;;;;;;;-146.82;100.00;71671.09;5075489;28;20021;-81
2023/08/21 06:01:25;;;;;;;15.93;11.63;;;;;;;-146.82;100.00;71671.09;5090318;28;20543;-82
2023/08/21 06:03:50;;;;;;;11.70;10.48;;;;;;;-146.82;100.00;71671.09;5073560;28;20020;-81
2023/08/21 06:06:17;;;;;;;12.63;11.23;;;;;;;-146.82;100.00;71671.09;5073950;28;20033;-80
2023/08/21 06:08:43;;;;;;;12.82;10.60;;;;;;;-146.82;100.00;71671.09;5073913;28;20083;-83
2023/08/21 06:11:09;;;;;;;11.93;9.00;;;;;;;-146.82;100.00;71671.09;5073863;28;20017;-81
2023/08/21 06:13:36;;;;;;;8.80;7.82;;;;;;;-146.82;100.00;71671.09;5072627;28;20032;-80
2023/08/21 06:16:02;;;;;;;6.55;5.85;;;;;;;-146.82;100.00;71671.09;5072167;28;20027;-81
2023/08/21 06:18:30;;;;;;;6.53;4.88;;;;;;;-146.82;100.00;71671.09;5090713;28;20103;-81
2023/08/21 06:20:57;;;;;;;5.47;4.50;;;;;;;-146.82;100.00;71671.09;5075220;28;20064;-81
2023/08/21 06:23:23;;;;;;;5.63;4.82;;;;;;;-146.82;100.00;71671.09;5091206;28;20373;-81
2023/08/21 06:25:49;;;;;;;6.53;5.15;;;;;;;-146.82;100.00;71671.09;5074850;28;20032;-82
2023/08/21 06:28:15;;;;;;;6.60;5.03;;;;;;;-146.82;100.00;71671.09;5074912;28;20032;-82
2023/08/21 06:30:42;;;;;;;5.68;4.55;;;;;;;-146.82;100.00;71671.09;5074648;28;20489;-81
2023/08/21 06:33:08;;;;;;;4.80;4.28;;;;;;;-146.82;100.00;71671.09;5090215;28;20027;-79
2023/08/21 06:35:37;;;;;;;5.75;4.97;;;;;;;-146.82;100.00;71671.09;5074155;28;20103;-79
2023/08/21 06:38:03;;;;;;;5.80;4.70;;;;;;;-146.82;100.00;71671.09;5074163;28;20070;-80
2023/08/21 06:40:29;;;;;;;6.07;4.82;;;;;;;-146.82;100.00;71671.09;5074742;28;20024;-80
2023/08/21 06:42:56;;;;;;;6.43;5.18;;;;;;;-146.82;100.00;71671.09;5074413;28;20032;-80
2023/08/21 06:45:23;;;;;;;7.72;5.28;;;;;;;-146.82;100.00;71671.09;5074193;28;20062;-80
2023/08/21 06:47:50;;;;;;;6.55;5.32;;;;;;;-146.82;100.00;71671.09;5074210;28;20449;-79
2023/08/21 06:50:16;;;;;;;6.47;5.60;;;;;;;-146.82;100.00;71671.09;5089610;28;20020;-80
2023/08/21 06:52:43;;;;;;;5.88;5.18;;;;;;;-146.82;100.00;71671.09;5072913;28;20091;-81
2023/08/21 06:55:09;;;;;;;7.85;4.90;;;;;;;-146.82;100.00;71671.09;5106903;28;20031;-80
2023/08/21 06:57:39;;;;;;;5.88;4.72;;;;;;;-146.82;100.00;71671.09;5106486;28;20091;-78
2023/08/21 07:00:06;;;;;;;8.90;4.72;;;;;;;-146.82;100.00;71671.09;5073784;28;20020;-81
2023/08/21 07:02:32;;;;;;;6.80;5.00;;;;;;;-146.82;100.00;71671.09;5074718;28;20437;-78
2023/08/21 07:04:58;;;;;;;4.38;3.97;;;;;;;-146.82;100.00;71671.09;5072809;28;20497;-78
2023/08/21 07:07:25;;;;;;;7.32;4.18;;;;;;;-146.82;100.00;71671.09;5074259;28;20089;-77
2023/08/21 07:09:51;;;;;;;7.72;4.93;;;;;;;-146.82;100.00;71671.09;5073880;28;20029;-79
2023/08/21 07:12:18;;;;;;;5.55;4.50;;;;;;;-146.82;100.00;71671.09;5073948;28;20074;-77
2023/08/21 07:14:44;;;;;;;4.63;4.22;;;;;;;-146.82;100.00;71671.09;5073822;28;20063;-78
2023/08/21 07:17:10;;;;;;;4.68;3.80;;;;;;;-146.82;100.00;71671.09;5072568;28;20423;-78
2023/08/21 07:19:39;;;;;;;5.30;4.25;;;;;;;-146.82;100.00;71671.09;5074067;28;20031;-77
2023/08/21 07:22:05;;;;;;;5.28;4.57;;;;;;;-146.82;100.00;71671.09;5073614;28;20461;-80
2023/08/21 07:24:33;;;;;;;5.53;4.20;;;;;;;-146.82;100.00;71671.09;5073430;28;20029;-79
2023/08/21 07:26:59;;;;;;;4.85;4.25;;;;;;;-146.82;100.00;71671.09;5089504;28;20017;-79
2023/08/21 07:29:29;;;;;;;4.55;4.15;;;;;;;-146.82;100.00;71671.09;5073652;28;20040;-80
2023/08/21 07:31:55;;;;;;;6.65;4.63;;;;;;;-146.82;100.00;71671.09;5106193;28;20381;-78
2023/08/21 07:34:22;;;;;;;6.00;4.20;;;;;;;-146.82;100.00;71671.09;5073888;28;20028;-79
2023/08/21 07:36:50;;;;;;;7.28;4.90;;;;;;;-146.82;100.00;71671.09;5073659;28;20166;-78
2023/08/21 07:39:17;;;;;;;5.65;4.40;;;;;;;-146.82;100.00;71671.09;5073904;28;20036;-80
2023/08/21 07:41:43;;;;;;;4.63;3.47;;;;;;;-146.82;100.00;71671.09;5073726;28;20089;-80
2023/08/21 07:44:09;;;;;;;6.47;3.60;;;;;;;-146.82;100.00;71671.09;5074549;28;20519;-84
2023/08/21 07:46:36;;;;;;;7.70;3.40;;;;;;;-146.82;100.00;71671.09;5092616;28;20020;-83
2023/08/21 07:49:02;;;;;;;3.55;3.05;;;;;;;-146.82;100.00;71671.09;5094099;28;20031;-85
2023/08/21 07:51:28;;;;;;;5.63;3.50;;;;;;;-146.82;100.00;71671.09;5107311;28;20032;-83
2023/08/21 07:53:54;;;;;;;4.28;3.47;;;;;;;-146.82;100.00;71671.09;5093699;28;20107;-80
2023/08/21 07:56:20;;;;;;;3.95;3.25;;;;;;;-146.82;100.00;71671.09;5109598;28;20020;-83
2023/08/21 07:58:47;;;;;;;4.85;3.30;;;;;;;-146.82;100.00;71671.09;5092685;28;20055;-82
2023/08/21 08:01:14;;;;;;;6.05;3.45;;;;;;;-146.82;100.00;71671.09;5088232;28;20423;-81
2023/08/21 08:03:41;;;;;;;10.02;3.20;;;;;;;-146.82;100.00;71671.09;5073438;28;20029;-78
2023/08/21 08:06:06;;;;;;;7.15;4.50;;;;;;;-146.82;100.00;71671.09;5073119;28;20373;-77
2023/08/21 08:08:34;;;;;;;4.82;3.42;;;;;;;-146.82;100.00;71671.09;5073321;28;20024;-77
2023/08/21 08:11:04;;;;;;;3.80;2.78;;;;;;;-146.82;100.00;71671.09;5074236;28;20039;-76
2023/08/21 08:13:30;;;;;;;5.47;3.10;;;;;;;-146.82;100.00;71671.09;5105520;28;20048;-78
2023/08/21 08:15:55;;;;;;;3.47;3.17;;;;;;;-146.82;100.00;71671.09;5076308;28;20098;-80
2023/08/21 08:18:20;;;;;;;4.43;2.80;;;;;;;-146.82;100.00;71671.09;5115899;28;20029;-82
2023/08/21 08:20:46;;;;;;;4.47;2.90;;;;;;;-146.82;100.00;71671.09;5084445;28;20036;-81
2023/08/21 08:23:16;;;;;;;3.50;3.20;;;;;;;-146.82;100.00;71671.09;5080595;28;20488;-80
2023/08/21 08:25:41;;;;;;;4.18;2.92;;;;;;;-146.82;100.00;71671.09;5079270;28;20036;-81
2023/08/21 08:28:09;;;;;;;3.97;2.97;;;;;;;-146.82;100.00;71671.09;5114601;28;20031;-80
2023/08/21 08:30:35;;;;;;;3.83;2.90;;;;;;;-146.82;100.00;71671.09;5081476;28;20039;-79
2023/08/21 08:33:00;;;;;;;3.60;2.85;;;;;;;-146.82;100.00;71671.09;5081487;28;20377;-81
2023/08/21 08:35:26;;;;;;;4.55;3.20;;;;;;;-146.82;100.00;71671.09;5078586;28;20024;-84
2023/08/21 08:37:53;;;;;;;4.22;2.50;;;;;;;-146.82;100.00;71671.09;5077025;28;20366;-81
2023/08/21 08:40:19;;;;;;;3.72;2.70;;;;;;;-146.82;100.00;71671.09;5076472;28;20111;-79
2023/08/21 08:42:59;;;;;;;3.58;2.92;;;;;;;-146.82;100.00;71671.09;5057519;28;20045;-78
2023/08/21 08:45:32;;;;;;;4.35;3.22;;;;;;;-146.82;100.00;71671.09;5076663;28;20029;-79
2023/08/21 08:48:01;;;;;;;4.25;2.60;;;;;;;-146.82;100.00;71671.09;5075307;28;20104;-76
2023/08/21 08:50:32;;;;;;;5.47;2.42;;;;;;;-146.82;100.00;71671.09;5091714;28;20441;-77
2023/08/21 08:53:00;;;;;;;6.57;2.70;;;;;;;-146.82;100.00;71671.09;5077806;28;20039;-78
2023/08/21 08:55:25;;;;;;;4.85;2.70;;;;;;;-146.82;100.00;71671.09;5076233;28;20059;-80
2023/08/21 08:57:52;;;;;;;3.83;2.83;;;;;;;-146.82;100.00;71671.09;5075057;28;20033;-83
2023/08/21 09:00:22;;;;;;;4.57;2.78;;;;;;;-146.82;100.00;71671.09;5074995;28;20504;-81
2023/08/21 09:02:48;;;;;;;4.35;2.92;;;;;;;-146.82;100.00;71671.09;5076687;28;20473;-85
2023/08/21 09:05:13;;;;;;;3.53;2.30;;;;;;;-146.82;100.00;71671.09;5076361;28;20052;-84
2023/08/21 09:07:40;;;;;;;3.70;2.50;;;;;;;-146.82;100.00;71671.09;5092470;28;20028;-84
2023/08/21 09:10:15;;;;;;;5.90;2.63;;;;;;;-146.82;100.00;71671.09;5075409;28;20037;-84
2023/08/21 09:12:45;;;;;;;4.97;2.80;;;;;;;-146.82;100.00;71671.09;5075650;28;20093;-86
2023/08/21 09:15:11;;;;;;;4.40;2.30;;;;;;;-146.82;100.00;71671.09;5091666;28;20268;-79
2023/08/21 09:17:40;;;;;;;2.72;2.53;;;;;;;-146.82;100.00;71671.09;5075867;28;20465;-81
2023/08/21 09:20:10;;;;;;;3.05;2.70;;;;;;;-146.82;100.00;71671.09;5075589;28;20028;-82
2023/08/21 09:22:35;;;;;;;7.45;3.30;;;;;;;-146.82;100.00;71671.09;5074988;28;20027;-82
2023/08/21 09:25:10;;;;;;;4.22;2.97;;;;;;;-146.82;100.00;71671.09;5056381;28;20041;-81
2023/08/21 09:27:40;;;;;;;3.92;2.83;;;;;;;-146.82;100.00;71671.09;5054507;28;20098;-77
2023/08/21 09:30:12;;;;;;;2.95;2.53;;;;;;;-146.82;100.00;71671.09;5054465;28;20501;-76
2023/08/21 09:33:00;;;;;;;6.45;2.92;;;;;;;-146.82;100.00;71671.09;5054138;28;20371;-79
2023/08/21 09:35:47;;;;;;;3.20;2.67;;;;;;;-146.82;100.00;71671.09;5055559;28;20393;-77
2023/08/21 09:38:14;;;;;;;4.30;2.72;;;;;;;-146.82;100.00;71671.09;5057290;28;20035;-75
2023/08/21 09:40:55;;;;;;;12.50;3.97;;;;;;;-146.82;100.00;71671.09;5107575;28;20171;-78
2023/08/21 09:43:23;;;;;;;7.57;3.08;;;;;;;-146.82;100.00;71671.09;5075307;28;20108;-77
2023/08/21 09:45:55;;;;;;;3.78;2.78;;;;;;;-146.82;100.00;71671.09;5108097;28;20044;-77
2023/08/21 09:48:33;;;;;;;3.70;3.15;;;;;;;-146.82;100.00;71671.09;5075108;28;20045;-77
2023/08/21 09:51:03;;;;;;;3.78;3.13;;;;;;;-146.82;100.00;71671.09;5073955;28;20066;-79
2023/08/21 09:53:31;;;;;;;7.53;3.15;;;;;;;-146.82;100.00;71671.09;5074989;28;20483;-77
2023/08/21 09:56:03;;;;;;;4.82;3.10;;;;;;;-146.82;100.00;71671.09;5075587;28;20039;-79
2023/08/21 09:58:30;;;;;;;3.72;3.30;;;;;;;-146.82;100.00;71671.09;5075370;28;20362;-77
2023/08/21 10:00:59;;;;;;;3.90;3.35;;;;;;;-146.82;100.00;71671.09;5090583;28;20580;-83
2023/08/21 10:03:27;;;;;;;6.07;3.25;;;;;;;-146.82;100.00;71671.09;5057207;28;20107;-76
2023/08/21 10:06:23;;;;;;;20.75;4.90;;;;;;;-146.82;100.00;71671.09;5072838;28;20636;-77
2023/08/21 10:08:53;;;;;;;5.32;3.13;;;;;;;-146.82;100.00;71671.09;5072628;28;20031;-76
2023/08/21 10:11:20;;;;;;;5.80;3.35;;;;;;;-146.82;100.00;71671.09;5073525;28;20070;-75
2023/08/21 10:13:45;;;;;;;5.18;3.13;;;;;;;-146.82;100.00;71671.09;5072930;28;20028;-76
2023/08/21 10:16:11;;;;;;;5.13;3.10;;;;;;;-146.82;100.00;71671.09;5073381;28;20031;-77
2023/08/21 10:18:37;;;;;;;6.05;3.40;;;;;;;-146.82;100.00;71671.09;5090239;28;20035;-77
2023/08/21 10:21:17;;;;;;;3.72;3.25;;;;;;;-146.82;100.00;71671.09;5071922;28;20024;-76
2023/08/21 10:23:46;;;;;;;5.38;3.55;;;;;;;-146.82;100.00;71671.09;5074330;28;20044;-76
2023/08/21 10:26:11;;;;;;;6.40;3.97;;;;;;;-146.82;100.00;71671.09;5107081;28;20381;-75
2023/08/21 10:29:06;;;;;;;5.35;3.28;;;;;;;-146.82;100.00;71671.09;5107250;28;20464;-79
2023/08/21 10:31:35;;;;;;;5.20;3.00;;;;;;;-146.82;100.00;71671.09;5105996;28;20021;-76
2023/08/21 10:34:12;;;;;;;3.88;3.42;;;;;;;-146.82;100.00;71671.09;5074605;28;20028;-77
2023/08/21 10:36:40;;;;;;;4.97;3.50;;;;;;;-146.82;100.00;71671.09;5074441;28;20028;-78
2023/08/21 10:39:16;;;;;;;3.75;3.15;;;;;;;-146.82;100.00;71671.09;5073902;28;20059;-82
2023/08/21 10:42:04;;;;;;;5.05;3.78;;;;;;;-146.82;100.00;71671.09;5106875;28;20059;-78
2023/08/21 10:44:36;;;;;;;4.13;3.33;;;;;;;-146.82;100.00;71671.09;5074420;28;20050;-74
2023/08/21 10:47:16;;;;;;;4.50;3.15;;;;;;;-146.82;100.00;71671.09;5074233;28;20162;-79
2023/08/21 10:49:47;;;;;;;5.80;3.60;;;;;;;-146.82;100.00;71671.09;5074088;28;20027;-80
2023/08/21 10:52:14;;;;;;;4.15;3.20;;;;;;;-146.82;100.00;71671.09;5074455;28;20044;-77
2023/08/21 10:54:47;;;;;;;5.68;2.90;;;;;;;-146.82;100.00;71671.09;5106434;28;20039;-78
2023/08/21 10:57:28;;;;;;;4.70;3.15;;;;;;;-146.82;100.00;71671.09;5089627;28;20035;-81
2023/08/21 11:00:04;;;;;;;2.97;2.65;;;;;;;-146.82;100.00;71671.09;5073548;28;20055;-82
2023/08/21 11:02:46;;;;;;;3.00;2.70;;;;;;;-146.82;100.00;71671.09;5107205;28;20048;-82
2023/08/21 11:05:14;;;;;;;5.78;2.88;;;;;;;-146.82;100.00;71671.09;5074289;28;20048;-84